Time;durP1;ratioP1;P1;durP2;ratioP2;P2;SDS_P1;SDS_P2;PMS_P1;PMS_P2;Temp;Humidity;BMP_temperature;BMP_pressure;BME280_temperature;BME280_humidity;BME280_pressure;Samples;Min_cycle;Max_cycle;Signal;HPM_P1;HPM_P2
2022/11/23 00:01:34;;;;;;;5.90;4.20;;;;;14.80;99296.00;;;;5016963;28;20196;-75
2022/11/23 00:04:03;;;;;;;4.85;4.10;;;;;14.80;99294.00;;;;5014718;28;20201;-75
2022/11/23 00:06:30;;;;;;;6.43;4.47;;;;;14.80;99306.00;;;;5019056;28;20196;-75
2022/11/23 00:08:59;;;;;;;5.28;4.13;;;;;14.80;99293.00;;;;5019039;28;20651;-75
2022/11/23 00:11:28;;;;;;;5.18;3.70;;;;;14.90;99297.00;;;;5016764;28;20199;-75
2022/11/23 00:13:55;;;;;;;4.90;4.07;;;;;14.90;99289.00;;;;5022936;28;20184;-75
2022/11/23 00:16:25;;;;;;;5.82;4.68;;;;;14.90;99292.00;;;;5025380;28;20208;-75
2022/11/23 00:18:53;;;;;;;6.15;4.25;;;;;14.90;99304.00;;;;5019515;28;20279;-75
2022/11/23 00:21:22;;;;;;;5.20;4.50;;;;;14.90;99308.00;;;;5011296;28;20208;-75
2022/11/23 00:23:50;;;;;;;6.60;5.32;;;;;14.90;99307.00;;;;5010353;28;20193;-75
2022/11/23 00:26:19;;;;;;;17.33;4.50;;;;;14.90;99310.00;;;;5014759;28;20200;-75
2022/11/23 00:28:46;;;;;;;7.65;5.20;;;;;14.90;99313.00;;;;5010160;28;20197;-75
2022/11/23 00:31:15;;;;;;;8.02;5.30;;;;;14.80;99314.00;;;;5009665;28;20228;-75
2022/11/23 00:33:43;;;;;;;7.75;5.35;;;;;14.80;99317.00;;;;5007508;28;20583;-75
2022/11/23 00:36:12;;;;;;;7.03;5.15;;;;;14.80;99321.00;;;;5023754;28;20197;-75
2022/11/23 00:38:41;;;;;;;6.22;4.30;;;;;14.80;99315.00;;;;5009930;28;20207;-75
2022/11/23 00:41:10;;;;;;;5.75;5.20;;;;;14.80;99314.00;;;;5010648;28;20204;-75
2022/11/23 00:43:39;;;;;;;4.28;3.83;;;;;14.80;99323.00;;;;5014052;28;20197;-75
2022/11/23 00:46:07;;;;;;;6.28;5.03;;;;;14.80;99311.00;;;;5010993;28;20197;-75
2022/11/23 00:48:35;;;;;;;8.52;4.32;;;;;14.80;99314.00;;;;5008845;28;20655;-75
2022/11/23 00:51:03;;;;;;;6.07;4.07;;;;;14.80;99331.00;;;;5012012;28;20225;-75
2022/11/23 00:53:30;;;;;;;5.55;4.50;;;;;14.80;99333.00;;;;5014648;28;20212;-75
2022/11/23 00:55:58;;;;;;;7.28;4.18;;;;;14.80;99331.00;;;;5009454;28;20193;-75
2022/11/23 00:58:26;;;;;;;4.88;4.15;;;;;14.80;99339.00;;;;5012460;28;20683;-75
2022/11/23 01:01:04;;;;;;;6.93;4.03;;;;;14.70;99334.00;;;;5023307;28;20197;-75
2022/11/23 01:03:32;;;;;;;6.50;4.05;;;;;14.80;99334.00;;;;5014777;28;20208;-75
2022/11/23 01:06:03;;;;;;;7.90;4.25;;;;;14.80;99344.00;;;;5012829;28;20632;-75
2022/11/23 01:08:31;;;;;;;5.63;3.85;;;;;14.90;99354.00;;;;5017759;28;20219;-75
2022/11/23 01:11:03;;;;;;;6.05;3.83;;;;;14.80;99353.00;;;;5017953;28;20216;-75
2022/11/23 01:13:30;;;;;;;4.70;3.72;;;;;14.90;99357.00;;;;5020608;28;20201;-75
2022/11/23 01:15:58;;;;;;;6.30;3.85;;;;;14.90;99361.00;;;;5019686;28;20196;-75
2022/11/23 01:18:27;;;;;;;6.90;4.60;;;;;14.90;99364.00;;;;5021411;28;20574;-75
2022/11/23 01:20:55;;;;;;;5.88;4.00;;;;;14.90;99367.00;;;;5014040;28;20193;-75
2022/11/23 01:23:22;;;;;;;4.82;3.42;;;;;14.90;99364.00;;;;5027814;28;20200;-75
2022/11/23 01:25:49;;;;;;;7.78;4.18;;;;;14.90;99364.00;;;;5020351;28;20204;-74
2022/11/23 01:28:17;;;;;;;7.47;4.60;;;;;14.90;99367.00;;;;5014386;28;20742;-75
2022/11/23 01:30:44;;;;;;;5.22;3.53;;;;;14.90;99365.00;;;;5009822;28;20231;-75
2022/11/23 01:33:12;;;;;;;8.00;4.03;;;;;14.90;99369.00;;;;5021200;28;20188;-74
2022/11/23 01:35:40;;;;;;;7.15;3.85;;;;;14.90;99370.00;;;;5009038;28;20232;-75
2022/11/23 01:38:08;;;;;;;9.80;3.83;;;;;14.90;99372.00;;;;5010092;28;20196;-75
2022/11/23 01:40:41;;;;;;;6.88;4.05;;;;;14.80;99372.00;;;;5023460;28;20200;-74
2022/11/23 01:43:14;;;;;;;5.82;3.78;;;;;14.90;99372.00;;;;5020777;28;20699;-74
2022/11/23 01:45:44;;;;;;;6.72;3.97;;;;;14.90;99377.00;;;;5008881;28;20207;-74
2022/11/23 01:48:17;;;;;;;8.20;4.03;;;;;14.80;99365.00;;;;5009286;28;20193;-74
2022/11/23 01:50:51;;;;;;;5.28;2.90;;;;;14.80;99374.00;;;;5013640;28;20228;-74
2022/11/23 01:53:20;;;;;;;6.85;3.17;;;;;14.80;99372.00;;;;5009204;28;20213;-75
2022/11/23 01:55:49;;;;;;;5.35;3.35;;;;;14.80;99368.00;;;;5008842;28;20903;-75
2022/11/23 01:58:20;;;;;;;7.32;3.70;;;;;14.80;99378.00;;;;5026042;28;20207;-74
2022/11/23 02:00:48;;;;;;;6.15;3.58;;;;;14.80;99380.00;;;;5013675;28;20197;-74
2022/11/23 02:03:17;;;;;;;4.07;3.00;;;;;14.80;99378.00;;;;5009101;28;20212;-74
2022/11/23 02:05:49;;;;;;;5.90;3.22;;;;;14.80;99383.00;;;;5009548;28;20193;-74
2022/11/23 02:08:18;;;;;;;6.55;2.45;;;;;14.80;99383.00;;;;5009871;28;20200;-75
2022/11/23 02:10:46;;;;;;;7.53;3.42;;;;;14.70;99383.00;;;;5026586;28;20229;-75
2022/11/23 02:13:14;;;;;;;5.30;3.33;;;;;14.70;99386.00;;;;5028130;28;20196;-75
2022/11/23 02:15:42;;;;;;;6.63;3.03;;;;;14.70;99388.00;;;;5016874;28;20300;-75
2022/11/23 02:18:15;;;;;;;5.25;3.28;;;;;14.70;99394.00;;;;5014671;28;20205;-75
2022/11/23 02:20:44;;;;;;;4.38;2.95;;;;;14.70;99395.00;;;;5019889;28;20203;-75
2022/11/23 02:23:22;;;;;;;4.82;3.30;;;;;14.60;99388.00;;;;5008350;28;20254;-75
2022/11/23 02:25:58;;;;;;;6.32;3.22;;;;;14.60;99393.00;;;;5025109;28;20199;-75
2022/11/23 02:28:32;;;;;;;3.50;2.40;;;;;14.70;99397.00;;;;5010677;28;20197;-75
2022/11/23 02:31:00;;;;;;;3.92;2.72;;;;;14.70;99392.00;;;;5011690;28;20232;-75
2022/11/23 02:33:27;;;;;;;6.68;2.90;;;;;14.70;99389.00;;;;5013779;28;20197;-75
2022/11/23 02:35:56;;;;;;;8.52;2.67;;;;;14.70;99394.00;;;;5022589;28;20239;-75
2022/11/23 02:38:25;;;;;;;5.10;3.17;;;;;14.70;99404.00;;;;5008972;28;20682;-75
2022/11/23 02:40:54;;;;;;;6.32;3.45;;;;;14.70;99395.00;;;;5013937;28;20215;-75
2022/11/23 02:43:21;;;;;;;6.43;3.50;;;;;14.70;99396.00;;;;5018200;28;20205;-75
2022/11/23 02:45:52;;;;;;;6.70;3.60;;;;;14.70;99400.00;;;;5011028;28;20193;-75
2022/11/23 02:48:20;;;;;;;6.20;3.13;;;;;14.70;99404.00;;;;5020776;28;20199;-75
2022/11/23 02:50:47;;;;;;;4.97;3.65;;;;;14.70;99401.00;;;;5017995;28;20220;-75
2022/11/23 02:53:15;;;;;;;4.80;3.33;;;;;14.60;99398.00;;;;5006752;28;20228;-75
2022/11/23 02:55:42;;;;;;;8.43;3.67;;;;;14.60;99406.00;;;;5007678;28;21044;-75
2022/11/23 02:58:11;;;;;;;5.28;3.50;;;;;14.60;99403.00;;;;5006735;28;20197;-75
2022/11/23 03:00:38;;;;;;;6.45;3.30;;;;;14.60;99400.00;;;;5019346;28;20200;-75
2022/11/23 03:03:06;;;;;;;6.80;3.35;;;;;14.60;99405.00;;;;5009163;28;20201;-75
2022/11/23 03:05:33;;;;;;;4.95;3.20;;;;;14.60;99403.00;;;;5018078;28;20197;-75
2022/11/23 03:08:01;;;;;;;4.82;3.58;;;;;14.60;99403.00;;;;5015615;28;20205;-74
2022/11/23 03:10:28;;;;;;;11.07;3.72;;;;;14.60;99405.00;;;;5007613;28;20217;-75
2022/11/23 03:12:56;;;;;;;4.22;3.15;;;;;14.60;99406.00;;;;5024635;28;20184;-75
2022/11/23 03:15:25;;;;;;;6.40;3.30;;;;;14.60;99408.00;;;;5011094;28;20197;-75
2022/11/23 03:17:52;;;;;;;6.97;2.85;;;;;14.60;99417.00;;;;5015642;28;20200;-74
2022/11/23 03:20:20;;;;;;;8.88;3.90;;;;;14.60;99409.00;;;;5017693;28;20205;-74
2022/11/23 03:22:47;;;;;;;4.20;3.30;;;;;14.60;99404.00;;;;5014494;28;20224;-75
2022/11/23 03:25:15;;;;;;;4.35;3.55;;;;;14.60;99405.00;;;;5012369;28;20193;-75
2022/11/23 03:27:42;;;;;;;5.80;3.08;;;;;14.60;99405.00;;;;5011714;28;20200;-76
2022/11/23 03:30:10;;;;;;;5.07;3.60;;;;;14.60;99411.00;;;;5022146;28;20230;-76
2022/11/23 03:32:39;;;;;;;5.60;2.97;;;;;14.60;99410.00;;;;5012948;28;20201;-75
2022/11/23 03:35:07;;;;;;;5.70;3.67;;;;;14.60;99404.00;;;;5011253;28;20231;-76
2022/11/23 03:37:35;;;;;;;7.68;3.53;;;;;14.60;99402.00;;;;5020766;28;20560;-76
2022/11/23 03:40:02;;;;;;;5.25;3.10;;;;;14.60;99403.00;;;;5027643;28;20201;-76
2022/11/23 03:42:29;;;;;;;5.18;2.95;;;;;14.60;99405.00;;;;5010621;28;20204;-76
2022/11/23 03:44:56;;;;;;;5.38;2.30;;;;;14.60;99406.00;;;;5018858;28;20204;-75
2022/11/23 03:47:24;;;;;;;5.47;2.45;;;;;14.60;99408.00;;;;5011487;28;20201;-76
2022/11/23 03:49:52;;;;;;;6.82;2.45;;;;;14.60;99409.00;;;;5013855;28;20192;-75
2022/11/23 03:52:20;;;;;;;5.88;2.72;;;;;14.60;99412.00;;;;5016600;28;20224;-76
2022/11/23 03:54:47;;;;;;;5.28;2.78;;;;;14.60;99405.00;;;;5027550;28;20212;-76
2022/11/23 03:57:14;;;;;;;3.97;2.45;;;;;14.60;99411.00;;;;5015266;28;20572;-76
2022/11/23 03:59:42;;;;;;;3.28;1.98;;;;;14.60;99408.00;;;;5019247;28;20197;-76
2022/11/23 04:02:09;;;;;;;2.95;2.28;;;;;14.60;99402.00;;;;5015390;28;20549;-76
2022/11/23 04:04:38;;;;;;;4.70;2.97;;;;;14.60;99405.00;;;;5013775;28;20203;-76
2022/11/23 04:07:06;;;;;;;3.30;2.22;;;;;14.60;99404.00;;;;5011938;28;20212;-76
2022/11/23 04:09:33;;;;;;;5.93;2.47;;;;;14.60;99408.00;;;;5015558;28;20204;-75
2022/11/23 04:12:01;;;;;;;4.38;2.53;;;;;14.60;99400.00;;;;5014404;28;20217;-75
2022/11/23 04:14:28;;;;;;;6.00;2.75;;;;;14.70;99400.00;;;;5011601;28;20207;-75
2022/11/23 04:16:55;;;;;;;3.20;2.20;;;;;14.70;99402.00;;;;5025132;28;20207;-75
2022/11/23 04:19:23;;;;;;;5.82;2.58;;;;;14.60;99399.00;;;;5024792;28;20215;-75
2022/11/23 04:21:50;;;;;;;6.45;2.58;;;;;14.60;99405.00;;;;5019557;28;20219;-75
2022/11/23 04:24:18;;;;;;;3.60;2.28;;;;;14.60;99398.00;;;;5030254;28;20196;-75
2022/11/23 04:26:46;;;;;;;3.78;1.95;;;;;14.60;99396.00;;;;5011230;28;20209;-75
2022/11/23 04:29:13;;;;;;;4.55;2.35;;;;;14.60;99397.00;;;;5013592;28;20204;-75
2022/11/23 04:31:40;;;;;;;3.55;2.22;;;;;14.50;99408.00;;;;5012999;28;20232;-75
2022/11/23 04:34:08;;;;;;;3.70;2.10;;;;;14.50;99403.00;;;;5010453;28;20227;-75
2022/11/23 04:36:35;;;;;;;5.10;2.50;;;;;14.40;99400.00;;;;5023947;28;20277;-75
2022/11/23 04:39:03;;;;;;;4.65;2.33;;;;;14.40;99403.00;;;;5029825;28;20189;-75
2022/11/23 04:41:31;;;;;;;4.70;2.50;;;;;14.40;99405.00;;;;5016101;28;20196;-75
2022/11/23 04:43:58;;;;;;;3.10;2.25;;;;;14.40;99407.00;;;;5018335;28;20197;-75
2022/11/23 04:46:26;;;;;;;4.95;2.40;;;;;14.40;99398.00;;;;5010961;28;20667;-75
2022/11/23 04:48:53;;;;;;;6.70;2.53;;;;;14.30;99395.00;;;;5010351;28;20209;-75
2022/11/23 04:51:20;;;;;;;6.25;2.95;;;;;14.30;99396.00;;;;5025227;28;20220;-75
2022/11/23 04:53:48;;;;;;;4.15;2.53;;;;;14.30;99408.00;;;;5014754;28;20221;-75
2022/11/23 04:56:15;;;;;;;4.75;2.13;;;;;14.30;99400.00;;;;5010557;28;20204;-75
2022/11/23 04:58:44;;;;;;;5.68;2.38;;;;;14.20;99399.00;;;;5013416;28;20200;-75
2022/11/23 05:01:12;;;;;;;4.90;2.55;;;;;14.20;99398.00;;;;5014903;28;20208;-75
2022/11/23 05:03:39;;;;;;;8.13;3.00;;;;;14.20;99399.00;;;;5012240;28;20227;-75
2022/11/23 05:06:07;;;;;;;4.95;2.03;;;;;14.20;99408.00;;;;5010413;28;20205;-75
2022/11/23 05:08:34;;;;;;;6.43;2.22;;;;;14.20;99406.00;;;;5010952;28;20197;-75
2022/11/23 05:11:01;;;;;;;4.80;1.95;;;;;14.20;99401.00;;;;5011490;28;20224;-75
2022/11/23 05:13:29;;;;;;;6.72;2.05;;;;;14.20;99402.00;;;;5009686;28;20212;-75
2022/11/23 05:15:57;;;;;;;2.67;1.90;;;;;14.20;99403.00;;;;5020149;28;20756;-76
2022/11/23 05:18:25;;;;;;;4.63;1.70;;;;;14.20;99399.00;;;;5029214;28;20207;-75
2022/11/23 05:20:52;;;;;;;3.08;1.77;;;;;14.30;99401.00;;;;5018837;28;20208;-75
2022/11/23 05:23:20;;;;;;;5.10;2.28;;;;;14.30;99406.00;;;;5027630;28;20685;-75
2022/11/23 05:25:47;;;;;;;7.75;2.25;;;;;14.30;99412.00;;;;5009775;28;20201;-75
2022/11/23 05:28:17;;;;;;;4.30;1.65;;;;;14.30;99411.00;;;;5012086;28;20196;-75
2022/11/23 05:30:45;;;;;;;3.95;1.77;;;;;14.30;99406.00;;;;5007277;28;20221;-75
2022/11/23 05:33:14;;;;;;;5.68;1.80;;;;;14.30;99409.00;;;;5007411;28;20205;-75
2022/11/23 05:35:41;;;;;;;3.28;1.58;;;;;14.30;99406.00;;;;5007825;28;20248;-75
2022/11/23 05:38:09;;;;;;;4.43;1.92;;;;;14.40;99417.00;;;;5009979;28;20212;-75
2022/11/23 05:40:36;;;;;;;5.38;1.63;;;;;14.40;99414.00;;;;5011199;28;20200;-75
2022/11/23 05:43:04;;;;;;;5.75;2.30;;;;;14.40;99424.00;;;;5006627;28;20256;-75
2022/11/23 05:45:32;;;;;;;4.03;1.80;;;;;14.40;99415.00;;;;5008463;28;20208;-75
2022/11/23 05:48:00;;;;;;;4.68;2.38;;;;;14.40;99422.00;;;;5018972;28;20205;-75
2022/11/23 05:50:30;;;;;;;5.07;2.15;;;;;14.40;99417.00;;;;5009332;28;20204;-75
2022/11/23 05:52:57;;;;;;;6.38;2.45;;;;;14.40;99422.00;;;;5007950;28;20197;-75
2022/11/23 05:55:25;;;;;;;4.47;2.10;;;;;14.40;99421.00;;;;5008862;28;20194;-75
2022/11/23 05:57:52;;;;;;;5.47;1.67;;;;;14.50;99432.00;;;;5017760;28;20205;-75
2022/11/23 06:00:20;;;;;;;4.57;1.90;;;;;14.50;99434.00;;;;5012763;28;20839;-75
2022/11/23 06:02:47;;;;;;;6.28;2.10;;;;;14.50;99432.00;;;;5012182;28;20718;-76
2022/11/23 06:05:14;;;;;;;4.15;2.03;;;;;14.50;99425.00;;;;5015156;28;20196;-75
2022/11/23 06:07:43;;;;;;;7.47;2.38;;;;;14.50;99429.00;;;;5016251;28;20205;-74
2022/11/23 06:10:12;;;;;;;7.72;2.58;;;;;14.50;99416.00;;;;5017050;28;20204;-75
2022/11/23 06:12:39;;;;;;;3.92;1.85;;;;;14.50;99424.00;;;;5013664;28;20212;-74
2022/11/23 06:15:08;;;;;;;3.05;2.00;;;;;14.50;99418.00;;;;5009289;28;20204;-74
2022/11/23 06:17:36;;;;;;;7.40;2.15;;;;;14.50;99432.00;;;;5007881;28;20193;-74
2022/11/23 06:20:05;;;;;;;4.25;1.85;;;;;14.50;99425.00;;;;5021758;28;20208;-74
2022/11/23 06:22:32;;;;;;;8.02;2.03;;;;;14.50;99421.00;;;;5026282;28;20288;-75
2022/11/23 06:25:01;;;;;;;3.17;1.45;;;;;14.50;99424.00;;;;5010098;28;21195;-74
2022/11/23 06:27:28;;;;;;;4.05;1.80;;;;;14.50;99430.00;;;;5018506;28;20192;-74
2022/11/23 06:29:56;;;;;;;2.33;0.95;;;;;14.50;99428.00;;;;5005066;28;20201;-74
2022/11/23 06:32:23;;;;;;;3.10;1.55;;;;;14.50;99425.00;;;;5009415;28;20224;-74
2022/11/23 06:34:50;;;;;;;5.35;1.40;;;;;14.50;99429.00;;;;5016474;28;20243;-74
2022/11/23 06:37:17;;;;;;;4.75;2.00;;;;;14.50;99423.00;;;;5018666;28;20203;-75
2022/11/23 06:39:45;;;;;;;3.85;1.50;;;;;14.50;99428.00;;;;5008613;28;20193;-75
2022/11/23 06:42:13;;;;;;;5.38;1.30;;;;;14.40;99428.00;;;;5008862;28;20223;-75
2022/11/23 06:44:41;;;;;;;4.43;1.13;;;;;14.40;99422.00;;;;5018550;28;20211;-74
2022/11/23 06:47:08;;;;;;;5.57;1.15;;;;;14.40;99426.00;;;;5014076;28;20196;-74
2022/11/23 06:49:35;;;;;;;4.35;1.10;;;;;14.40;99427.00;;;;5022687;28;20204;-75
2022/11/23 06:52:03;;;;;;;5.72;1.80;;;;;14.30;99427.00;;;;5024143;28;20574;-74
2022/11/23 06:54:30;;;;;;;4.13;1.30;;;;;14.30;99442.00;;;;5029832;28;20724;-74
2022/11/23 06:56:57;;;;;;;6.47;1.40;;;;;14.30;99443.00;;;;5011591;28;20185;-74
2022/11/23 06:59:26;;;;;;;4.75;1.50;;;;;14.20;99449.00;;;;5028867;28;20212;-75
2022/11/23 07:01:54;;;;;;;7.35;1.73;;;;;14.20;99444.00;;;;5017971;28;20200;-75
2022/11/23 07:04:21;;;;;;;6.38;1.60;;;;;14.20;99457.00;;;;5010807;28;20193;-75
2022/11/23 07:06:48;;;;;;;2.75;0.90;;;;;14.10;99459.00;;;;5011098;28;20197;-75
2022/11/23 07:09:16;;;;;;;2.65;1.10;;;;;14.10;99458.00;;;;5011197;28;20472;-75
2022/11/23 07:11:43;;;;;;;6.63;1.40;;;;;14.10;99463.00;;;;5011394;28;20244;-75
2022/11/23 07:14:10;;;;;;;5.53;1.20;;;;;14.00;99458.00;;;;5010900;28;20196;-75
2022/11/23 07:16:39;;;;;;;5.32;1.17;;;;;14.00;99466.00;;;;5024496;28;20197;-75
2022/11/23 07:19:06;;;;;;;6.85;1.40;;;;;14.00;99470.00;;;;5011850;28;20228;-75
2022/11/23 07:21:34;;;;;;;4.47;1.00;;;;;13.90;99468.00;;;;5015456;28;20197;-75
2022/11/23 07:24:01;;;;;;;4.63;1.40;;;;;13.90;99477.00;;;;5010385;28;20220;-75
2022/11/23 07:26:28;;;;;;;3.65;1.33;;;;;13.90;99469.00;;;;5010667;28;20204;-75
2022/11/23 07:28:55;;;;;;;3.15;1.38;;;;;13.90;99481.00;;;;5010061;28;20193;-75
2022/11/23 07:31:23;;;;;;;7.97;1.70;;;;;13.90;99481.00;;;;5010775;28;20227;-74
2022/11/23 07:33:52;;;;;;;2.78;1.02;;;;;13.90;99479.00;;;;5010626;28;20205;-74
2022/11/23 07:36:19;;;;;;;6.10;1.23;;;;;13.90;99485.00;;;;5010065;28;20663;-74
2022/11/23 07:38:46;;;;;;;3.47;0.98;;;;;13.90;99490.00;;;;5011661;28;20204;-74
2022/11/23 07:41:14;;;;;;;3.95;0.90;;;;;14.00;99488.00;;;;5016683;28;20201;-74
2022/11/23 07:43:41;;;;;;;3.90;1.27;;;;;14.00;99495.00;;;;5011732;28;20205;-75
2022/11/23 07:46:08;;;;;;;2.92;1.20;;;;;14.00;99499.00;;;;5015501;28;20197;-75
2022/11/23 07:48:36;;;;;;;5.55;1.45;;;;;14.00;99501.00;;;;5018063;28;20189;-74
2022/11/23 07:51:04;;;;;;;4.07;1.33;;;;;14.00;99507.00;;;;5030400;28;20189;-74
2022/11/23 07:53:31;;;;;;;5.40;1.17;;;;;14.10;99514.00;;;;5010502;28;20224;-74
2022/11/23 07:55:59;;;;;;;7.28;1.67;;;;;14.10;99513.00;;;;5010712;28;20211;-74
2022/11/23 07:58:26;;;;;;;4.78;1.17;;;;;14.10;99515.00;;;;5010716;28;20655;-75
2022/11/23 08:00:53;;;;;;;6.13;1.65;;;;;14.10;99518.00;;;;5010475;28;20682;-76
2022/11/23 08:03:21;;;;;;;7.22;1.33;;;;;14.10;99525.00;;;;5013818;28;20197;-76
2022/11/23 08:05:48;;;;;;;5.63;1.60;;;;;14.10;99519.00;;;;5013329;28;20633;-75
2022/11/23 08:08:17;;;;;;;7.57;1.88;;;;;14.10;99525.00;;;;5016925;28;20200;-75
2022/11/23 08:10:44;;;;;;;3.22;1.05;;;;;14.20;99525.00;;;;5027563;28;20215;-75
2022/11/23 08:13:11;;;;;;;6.85;1.77;;;;;14.20;99521.00;;;;5015754;28;20231;-75
2022/11/23 08:15:39;;;;;;;8.88;1.58;;;;;14.20;99528.00;;;;5022035;28;20200;-74
2022/11/23 08:18:06;;;;;;;8.55;1.42;;;;;14.30;99535.00;;;;5016257;28;20212;-75
2022/11/23 08:20:33;;;;;;;5.18;0.98;;;;;14.30;99525.00;;;;5029468;28;20209;-75
2022/11/23 08:23:01;;;;;;;3.67;1.52;;;;;14.30;99529.00;;;;5025470;28;20200;-75
2022/11/23 08:25:30;;;;;;;3.95;0.68;;;;;14.30;99518.00;;;;5027817;28;20200;-75
2022/11/23 08:27:58;;;;;;;5.60;1.90;;;;;14.40;99528.00;;;;5022842;28;20215;-75
2022/11/23 08:30:26;;;;;;;4.88;0.98;;;;;14.40;99526.00;;;;5021207;28;20212;-75
2022/11/23 08:32:53;;;;;;;8.48;1.88;;;;;14.40;99524.00;;;;5020551;28;20244;-76
2022/11/23 08:35:21;;;;;;;3.88;0.80;;;;;14.50;99527.00;;;;5014915;28;20224;-75
2022/11/23 08:37:48;;;;;;;6.82;1.50;;;;;14.50;99530.00;;;;5010624;28;20220;-75
2022/11/23 08:40:16;;;;;;;7.07;1.20;;;;;14.50;99526.00;;;;5017152;28;20200;-75
2022/11/23 08:42:46;;;;;;;8.15;1.67;;;;;14.60;99524.00;;;;5014273;28;20192;-75
2022/11/23 08:45:13;;;;;;;4.47;0.98;;;;;14.60;99522.00;;;;5018976;28;20574;-75
2022/11/23 08:47:40;;;;;;;4.97;1.45;;;;;14.60;99520.00;;;;5019543;28;20205;-75
2022/11/23 08:50:08;;;;;;;4.45;1.10;;;;;14.60;99514.00;;;;5016755;28;20566;-76
2022/11/23 08:52:36;;;;;;;1.92;0.85;;;;;14.60;99519.00;;;;5019630;28;20226;-76
2022/11/23 08:55:03;;;;;;;6.20;1.20;;;;;14.70;99521.00;;;;5013387;28;20237;-75
2022/11/23 08:57:31;;;;;;;7.53;1.73;;;;;14.70;99523.00;;;;5018319;28;20220;-75
2022/11/23 08:59:59;;;;;;;4.20;1.40;;;;;14.70;99518.00;;;;5020619;28;20207;-75
2022/11/23 09:02:28;;;;;;;5.97;1.33;;;;;14.70;99520.00;;;;5013204;28;20204;-75
2022/11/23 09:04:55;;;;;;;4.88;1.73;;;;;14.80;99522.00;;;;5013660;28;20200;-75
2022/11/23 09:07:22;;;;;;;6.35;1.17;;;;;14.80;99521.00;;;;5012762;28;20193;-76
2022/11/23 09:09:49;;;;;;;1.90;0.77;;;;;14.80;99533.00;;;;5008898;28;20201;-75
2022/11/23 09:12:17;;;;;;;4.47;1.23;;;;;14.80;99516.00;;;;5013238;28;20228;-76
2022/11/23 09:14:44;;;;;;;3.80;1.02;;;;;14.80;99521.00;;;;5014015;28;20205;-76
2022/11/23 09:17:13;;;;;;;5.40;1.33;;;;;14.80;99517.00;;;;5008722;28;20685;-76
2022/11/23 09:19:40;;;;;;;5.65;1.02;;;;;14.90;99515.00;;;;5019487;28;20207;-75
2022/11/23 09:22:07;;;;;;;5.72;1.10;;;;;14.90;99520.00;;;;5022863;28;20213;-76
2022/11/23 09:24:35;;;;;;;3.92;1.10;;;;;14.90;99515.00;;;;5025297;28;20208;-75
2022/11/23 09:27:02;;;;;;;5.30;1.35;;;;;15.00;99509.00;;;;5023716;28;20326;-75
2022/11/23 09:29:29;;;;;;;6.05;1.20;;;;;15.00;99509.00;;;;5015915;28;20192;-76
2022/11/23 09:31:56;;;;;;;8.13;1.00;;;;;15.00;99513.00;;;;5012659;28;20221;-76
2022/11/23 09:34:26;;;;;;;7.95;1.13;;;;;15.00;99508.00;;;;5013927;28;20224;-75
2022/11/23 09:36:53;;;;;;;8.18;1.40;;;;;15.00;99509.00;;;;5014361;28;20207;-77
2022/11/23 09:39:22;;;;;;;6.80;1.23;;;;;15.00;99500.00;;;;5011173;28;20211;-76
2022/11/23 09:42:27;;;;;;;3.80;1.00;;;;;14.90;99500.00;;;;5008601;28;20205;-76
2022/11/23 09:45:22;;;;;;;5.28;1.88;;;;;14.90;99491.00;;;;5021377;28;20208;-76
2022/11/23 09:48:08;;;;;;;3.83;1.10;;;;;15.00;99506.00;;;;5012088;28;20205;-76
2022/11/23 09:50:46;;;;;;;3.25;0.95;;;;;14.90;99491.00;;;;5007678;28;20193;-75
2022/11/23 09:53:18;;;;;;;7.70;1.05;;;;;15.00;99489.00;;;;5008310;28;20212;-75
2022/11/23 09:55:48;;;;;;;10.38;1.33;;;;;15.00;99486.00;;;;5010511;28;20671;-76
2022/11/23 09:58:18;;;;;;;4.70;1.48;;;;;15.00;99484.00;;;;5017491;28;20204;-76
2022/11/23 10:00:50;;;;;;;3.42;1.27;;;;;15.00;99473.00;;;;5015601;28;20212;-76
2022/11/23 10:03:18;;;;;;;7.43;1.30;;;;;15.00;99467.00;;;;5004976;28;20204;-76
2022/11/23 10:05:57;;;;;;;3.10;1.15;;;;;15.00;99453.00;;;;5007997;28;20698;-76
2022/11/23 10:08:37;;;;;;;5.10;1.52;;;;;15.00;99454.00;;;;5005134;28;20192;-75
2022/11/23 10:11:30;;;;;;;8.25;1.42;;;;;15.00;99438.00;;;;5008175;28;20201;-76
2022/11/23 10:14:11;;;;;;;3.95;1.00;;;;;15.00;99452.00;;;;5008226;28;20229;-76
2022/11/23 10:16:46;;;;;;;8.02;1.50;;;;;15.10;99445.00;;;;5026633;28;20196;-75
2022/11/23 10:19:24;;;;;;;5.15;1.27;;;;;15.10;99451.00;;;;5019588;28;20192;-75
2022/11/23 10:22:00;;;;;;;4.40;0.85;;;;;15.10;99445.00;;;;5014169;28;20196;-75
2022/11/23 10:24:32;;;;;;;3.58;1.10;;;;;15.10;99452.00;;;;5021547;28;20214;-76
2022/11/23 10:27:00;;;;;;;9.75;1.52;;;;;15.20;99446.00;;;;5027718;28;20208;-75
2022/11/23 10:29:32;;;;;;;2.67;0.98;;;;;15.20;99449.00;;;;5018788;28;20201;-76
2022/11/23 10:31:59;;;;;;;2.70;0.98;;;;;15.20;99440.00;;;;5024281;28;20204;-76
2022/11/23 10:34:46;;;;;;;4.30;1.13;;;;;15.10;99462.00;;;;5010111;28;20247;-76
2022/11/23 10:37:17;;;;;;;3.30;1.33;;;;;15.20;99467.00;;;;5010005;28;21010;-76
2022/11/23 10:39:44;;;;;;;5.07;1.83;;;;;15.20;99462.00;;;;5016024;28;20205;-75
2022/11/23 10:42:20;;;;;;;5.07;0.90;;;;;15.20;99463.00;;;;5009035;28;20189;-76
2022/11/23 10:44:51;;;;;;;4.35;0.75;;;;;15.30;99462.00;;;;5020080;28;20205;-76
2022/11/23 10:47:34;;;;;;;4.78;1.20;;;;;15.20;99461.00;;;;5010004;28;20746;-76
2022/11/23 10:50:01;;;;;;;5.30;1.20;;;;;15.40;99462.00;;;;5007788;28;20204;-76
2022/11/23 10:52:32;;;;;;;7.28;1.42;;;;;15.40;99457.00;;;;5008275;28;20254;-76
2022/11/23 10:55:01;;;;;;;4.07;1.33;;;;;15.50;99464.00;;;;5020060;28;20217;-75
2022/11/23 10:57:33;;;;;;;5.32;1.23;;;;;15.40;99442.00;;;;5008015;28;20208;-75
2022/11/23 11:00:02;;;;;;;3.20;0.90;;;;;15.50;99456.00;;;;5008953;28;20207;-75
2022/11/23 11:02:37;;;;;;;3.40;1.13;;;;;15.50;99441.00;;;;5010899;28;20251;-76
2022/11/23 11:05:25;;;;;;;5.18;1.02;;;;;15.40;99454.00;;;;5007718;28;20192;-75
2022/11/23 11:07:54;;;;;;;5.82;1.00;;;;;15.50;99461.00;;;;5008982;28;20201;-76
2022/11/23 11:10:38;;;;;;;4.80;1.10;;;;;15.50;99449.00;;;;5006680;28;20189;-76
2022/11/23 11:13:31;;;;;;;3.30;0.85;;;;;15.50;99453.00;;;;5007890;28;20224;-77
2022/11/23 11:16:01;;;;;;;3.65;0.93;;;;;15.60;99453.00;;;;5012423;28;20199;-76
2022/11/23 11:18:31;;;;;;;2.17;0.80;;;;;15.60;99452.00;;;;5009740;28;20205;-76
2022/11/23 11:21:05;;;;;;;4.40;0.95;;;;;15.60;99443.00;;;;5007000;28;20197;-76
2022/11/23 11:23:39;;;;;;;4.75;1.23;;;;;15.70;99444.00;;;;5017081;28;20674;-76
2022/11/23 11:26:20;;;;;;;7.80;1.80;;;;;15.70;99444.00;;;;5008990;28;20685;-76
2022/11/23 11:28:50;;;;;;;7.70;1.35;;;;;15.70;99439.00;;;;5017742;28;20212;-77
2022/11/23 11:31:30;;;;;;;7.55;1.45;;;;;15.70;99443.00;;;;5015280;28;20215;-76
2022/11/23 11:34:04;;;;;;;2.50;1.20;;;;;15.80;99435.00;;;;5011667;28;20233;-75
2022/11/23 11:36:37;;;;;;;4.18;0.90;;;;;15.80;99435.00;;;;5008647;28;20204;-75
2022/11/23 11:39:14;;;;;;;4.63;1.33;;;;;15.90;99427.00;;;;5011234;28;20200;-75
2022/11/23 11:41:44;;;;;;;4.65;1.08;;;;;15.90;99433.00;;;;5025080;28;20196;-75
2022/11/23 11:44:17;;;;;;;3.40;1.65;;;;;15.90;99406.00;;;;5029046;28;20218;-75
2022/11/23 11:46:51;;;;;;;5.85;1.25;;;;;15.90;99397.00;;;;5019686;28;20774;-75
2022/11/23 11:49:23;;;;;;;6.13;1.65;;;;;16.00;99397.00;;;;5025748;28;20200;-75
2022/11/23 11:51:54;;;;;;;3.75;1.30;;;;;16.00;99401.00;;;;5010387;28;20201;-75
2022/11/23 11:54:30;;;;;;;4.82;1.08;;;;;16.00;99387.00;;;;5010011;28;20498;-76
2022/11/23 11:57:03;;;;;;;3.92;1.13;;;;;16.00;99385.00;;;;5018629;28;20596;-76
2022/11/23 11:59:41;;;;;;;6.05;1.20;;;;;16.00;99386.00;;;;5030015;28;20197;-75
2022/11/23 12:02:20;;;;;;;3.03;0.90;;;;;16.00;99373.00;;;;5020139;28;20598;-75
2022/11/23 12:05:01;;;;;;;3.13;0.95;;;;;16.10;99374.00;;;;5011455;28;20208;-75
2022/11/23 12:07:31;;;;;;;4.55;0.75;;;;;16.10;99375.00;;;;5017464;28;20203;-75
2022/11/23 12:10:10;;;;;;;4.63;1.05;;;;;16.20;99376.00;;;;5029767;28;20192;-75
2022/11/23 12:12:37;;;;;;;3.10;0.70;;;;;16.20;99371.00;;;;5019572;28;20418;-75
2022/11/23 12:15:06;;;;;;;4.47;0.93;;;;;16.30;99373.00;;;;5015887;28;20243;-75
2022/11/23 12:17:46;;;;;;;1.40;0.43;;;;;16.30;99365.00;;;;5014751;28;20193;-75
2022/11/23 12:20:22;;;;;;;1.75;0.63;;;;;16.30;99372.00;;;;5012622;28;20195;-75
2022/11/23 12:23:05;;;;;;;3.85;0.68;;;;;16.40;99369.00;;;;5015230;28;20215;-75
2022/11/23 12:25:37;;;;;;;4.22;1.00;;;;;16.40;99356.00;;;;5024231;28;20197;-75
2022/11/23 12:28:19;;;;;;;4.18;0.80;;;;;16.40;99361.00;;;;5024494;28;20189;-75
2022/11/23 12:30:54;;;;;;;5.10;1.02;;;;;16.50;99357.00;;;;5011409;28;20208;-75